Time;durP1;ratioP1;P1;durP2;ratioP2;P2;SDS_P1;SDS_P2;PMS_P1;PMS_P2;Temp;Humidity;BMP_temperature;BMP_pressure;BME280_temperature;BME280_humidity;BME280_pressure;Samples;Min_cycle;Max_cycle;Signal;HPM_P1;HPM_P2
2024/04/03 00:04:26;;;;;;;2.80;1.20;;;;;;;11.43;60.19;98107.14;238859;180;152984;-56
2024/04/03 00:09:29;;;;;;;3.30;1.10;;;;;;;11.43;59.95;98105.38;238906;180;138191;-55
2024/04/03 00:14:32;;;;;;;1.60;1.00;;;;;;;11.43;59.75;98106.11;238977;173;138386;-55
2024/04/03 00:19:35;;;;;;;3.50;1.10;;;;;;;11.45;59.57;98102.55;238929;180;154523;-56
2024/04/03 00:24:39;;;;;;;3.60;1.10;;;;;;;11.48;59.18;98098.95;238810;178;137623;-56
2024/04/03 00:29:48;;;;;;;2.90;1.10;;;;;;;11.48;58.92;98103.52;238991;180;137529;-56
2024/04/03 00:34:52;;;;;;;3.80;1.30;;;;;;;11.48;58.63;98103.52;238992;180;153154;-56
2024/04/03 00:39:58;;;;;;;6.10;1.20;;;;;;;11.48;58.35;98105.88;239022;180;137524;-56
2024/04/03 00:45:01;;;;;;;1.90;1.10;;;;;;;11.47;57.91;98112.88;238862;180;138447;-56
2024/04/03 00:50:05;;;;;;;4.80;1.20;;;;;;;11.42;57.68;98111.35;238984;180;153805;-55
2024/04/03 00:55:08;;;;;;;1.50;1.00;;;;;;;11.36;57.67;98118.12;238905;180;142692;-55
2024/04/03 01:00:11;;;;;;;3.10;1.00;;;;;;;11.36;57.57;98118.70;238886;180;137543;-55
2024/04/03 01:05:14;;;;;;;4.50;1.20;;;;;;;11.37;57.38;98117.20;238901;180;152844;-56
2024/04/03 01:10:17;;;;;;;3.70;1.00;;;;;;;11.34;57.13;98113.16;238860;179;138893;-54
2024/04/03 01:15:21;;;;;;;2.00;1.10;;;;;;;11.31;57.13;98114.50;238969;180;137777;-55
2024/04/03 01:20:24;;;;;;;4.30;1.10;;;;;;;11.29;56.80;98120.56;238821;180;153588;-56
2024/04/03 01:25:27;;;;;;;1.80;1.10;;;;;;;11.29;56.90;98122.44;238893;180;137395;-53
2024/04/03 01:30:51;;;;;;;1.60;0.90;;;;;;;11.29;56.78;98125.30;238965;180;137971;-55
2024/04/03 01:35:54;;;;;;;5.30;1.30;;;;;;;11.27;56.79;98127.95;238899;180;155054;-55
2024/04/03 01:40:57;;;;;;;2.70;1.30;;;;;;;11.25;56.90;98126.66;238935;180;137687;-56
2024/04/03 01:46:01;;;;;;;1.80;1.00;;;;;;;11.24;56.95;98125.15;239077;180;138350;-55
2024/04/03 01:51:06;;;;;;;3.20;1.10;;;;;;;11.21;56.93;98119.90;239002;180;153387;-55
2024/04/03 01:56:09;;;;;;;2.80;1.30;;;;;;;11.19;56.73;98113.66;238996;180;138726;-56
2024/04/03 02:01:12;;;;;;;2.70;1.30;;;;;;;11.17;56.78;98110.46;238888;180;138050;-55
2024/04/03 02:06:15;;;;;;;2.80;1.10;;;;;;;11.14;56.82;98115.70;239043;180;153310;-56
2024/04/03 02:11:18;;;;;;;4.30;1.10;;;;;;;11.06;56.80;98114.34;238953;180;138130;-55
2024/04/03 02:16:21;;;;;;;1.80;0.90;;;;;;;11.01;56.89;98109.42;239100;180;138203;-55
2024/04/03 02:21:24;;;;;;;2.80;0.90;;;;;;;10.98;57.00;98113.20;239013;180;154393;-56
2024/04/03 02:26:27;;;;;;;1.50;0.80;;;;;;;10.97;57.11;98115.64;239010;180;137166;-55
2024/04/03 02:31:30;;;;;;;1.70;0.80;;;;;;;11.01;57.04;98112.43;239039;180;137939;-55
2024/04/03 02:36:34;;;;;;;2.70;1.10;;;;;;;10.99;57.04;98106.01;238975;180;152949;-56
2024/04/03 02:41:37;;;;;;;3.10;1.10;;;;;;;11.00;56.98;98107.73;239038;180;138037;-56
2024/04/03 02:46:40;;;;;;;2.90;1.10;;;;;;;10.94;57.27;98108.00;238907;180;137510;-56
2024/04/03 02:51:43;;;;;;;2.00;0.90;;;;;;;10.96;57.31;98107.35;238911;180;153505;-56
2024/04/03 02:56:45;;;;;;;2.80;1.00;;;;;;;10.90;57.32;98107.13;238801;176;137994;-56
2024/04/03 03:01:50;;;;;;;4.10;0.90;;;;;;;10.89;57.57;98105.02;239093;180;138505;-55
2024/04/03 03:06:53;;;;;;;3.80;1.00;;;;;;;10.90;57.74;98103.14;238923;180;155187;-55
2024/04/03 03:11:56;;;;;;;2.80;1.00;;;;;;;10.95;57.69;98101.38;238964;180;138601;-54
2024/04/03 03:16:59;;;;;;;5.60;1.10;;;;;;;10.97;57.72;98106.22;239161;177;137469;-56
2024/04/03 03:22:03;;;;;;;6.30;1.40;;;;;;;10.95;58.42;98099.42;239162;176;155534;-55
2024/04/03 03:27:06;;;;;;;3.00;1.20;;;;;;;10.91;58.83;98102.77;238934;180;137096;-57
2024/04/03 03:32:08;;;;;;;9.00;1.40;;;;;;;10.87;58.89;98099.67;239026;180;137506;-56
2024/04/03 03:37:11;;;;;;;1.90;0.80;;;;;;;10.88;58.93;98103.50;239035;180;153040;-56
2024/04/03 03:42:14;;;;;;;3.70;0.90;;;;;;;10.89;58.82;98098.31;239080;180;137926;-56
2024/04/03 03:47:17;;;;;;;2.90;1.20;;;;;;;10.88;59.12;98094.41;239160;180;142912;-56
2024/04/03 03:52:40;;;;;;;2.80;1.00;;;;;;;10.87;59.05;98092.02;239032;173;153195;-53
2024/04/03 03:57:44;;;;;;;5.30;1.30;;;;;;;10.88;59.00;98096.06;239078;180;137506;-55
2024/04/03 04:02:47;;;;;;;3.60;1.10;;;;;;;10.88;58.97;98100.47;239021;180;137899;-52
2024/04/03 04:07:50;;;;;;;3.30;1.10;;;;;;;10.87;59.04;98105.70;238939;180;153135;-56
2024/04/03 04:12:54;;;;;;;2.30;0.90;;;;;;;10.88;59.28;98105.14;238956;179;138383;-54
2024/04/03 04:17:57;;;;;;;60.20;46.20;;;;;;;10.93;59.29;98092.67;239088;180;137749;-56
2024/04/03 04:23:00;;;;;;;38.50;29.60;;;;;;;11.01;59.08;98092.61;238925;180;155635;-56
2024/04/03 04:28:03;;;;;;;16.60;11.70;;;;;;;11.10;58.89;98092.20;238739;181;137323;-56
2024/04/03 04:33:06;;;;;;;2.30;1.30;;;;;;;11.16;58.92;98093.13;239000;180;154385;-56
2024/04/03 04:38:09;;;;;;;4.40;1.30;;;;;;;11.20;58.36;98091.94;238791;180;153381;-57
2024/04/03 04:43:13;;;;;;;4.20;1.20;;;;;;;11.24;58.01;98095.75;238995;180;137725;-57
2024/04/03 04:48:16;;;;;;;2.80;1.10;;;;;;;11.28;57.51;98095.94;239004;180;138907;-57
2024/04/03 04:53:20;;;;;;;5.70;0.90;;;;;;;11.30;57.23;98096.98;238952;180;154553;-57
2024/04/03 04:58:23;;;;;;;3.10;1.10;;;;;;;11.34;56.97;98100.89;238969;180;138052;-55
2024/04/03 05:03:26;;;;;;;56.50;41.70;;;;;;;11.43;56.80;98105.52;238916;180;137607;-56
2024/04/03 05:08:31;;;;;;;3.40;1.40;;;;;;;11.54;56.25;98104.31;239047;177;153153;-58
2024/04/03 05:13:34;;;;;;;5.00;1.30;;;;;;;11.58;55.85;98109.31;239046;180;138639;-56
2024/04/03 05:18:39;;;;;;;6.20;1.20;;;;;;;11.63;55.35;98112.48;239123;180;137326;-56
2024/04/03 05:23:48;;;;;;;4.70;1.50;;;;;;;11.66;55.34;98105.34;239040;180;154298;-56
2024/04/03 05:28:51;;;;;;;5.60;1.30;;;;;;;11.65;55.16;98109.12;238950;180;138146;-56
2024/04/03 05:33:53;;;;;;;5.50;3.10;;;;;;;11.67;55.14;98113.52;239013;180;137161;-57
2024/04/03 05:38:57;;;;;;;5.80;1.40;;;;;;;11.73;54.69;98119.44;238983;180;154027;-56
2024/04/03 05:43:59;;;;;;;2.90;1.20;;;;;;;11.77;54.56;98120.38;238834;180;137297;-56
2024/04/03 05:49:03;;;;;;;7.10;1.20;;;;;;;11.80;54.38;98125.46;239086;180;138137;-57
2024/04/03 05:54:05;;;;;;;9.30;6.00;;;;;;;11.83;54.43;98133.05;238967;180;153800;-57
2024/04/03 05:59:08;;;;;;;5.40;1.60;;;;;;;11.87;54.38;98125.27;239010;180;137193;-57
2024/04/03 06:04:11;;;;;;;5.20;1.30;;;;;;;11.91;54.15;98129.05;238975;180;136882;-58
2024/04/03 06:09:14;;;;;;;5.90;1.20;;;;;;;11.87;53.85;98131.65;239051;180;153166;-57
2024/04/03 06:14:17;;;;;;;6.50;1.50;;;;;;;11.92;54.19;98127.21;238970;180;137439;-57
2024/04/03 06:19:20;;;;;;;4.40;1.60;;;;;;;11.93;53.97;98135.77;238990;180;138359;-57
2024/04/03 06:24:23;;;;;;;4.70;1.30;;;;;;;11.94;53.91;98133.60;239012;177;152979;-58
2024/04/03 06:29:26;;;;;;;3.70;1.30;;;;;;;11.98;53.96;98137.36;238850;180;137733;-56
2024/04/03 06:34:29;;;;;;;117.00;80.80;;;;;;;12.01;53.80;98145.82;238971;180;139872;-58
2024/04/03 06:39:32;;;;;;;6.20;1.80;;;;;;;12.06;53.69;98149.31;238870;177;153226;-58
2024/04/03 06:44:37;;;;;;;3.30;1.10;;;;;;;12.09;53.35;98146.00;238951;180;137807;-57
2024/04/03 06:49:40;;;;;;;3.50;1.20;;;;;;;12.12;53.52;98139.55;239092;180;137560;-58
2024/04/03 06:54:43;;;;;;;3.50;1.10;;;;;;;12.20;53.20;98146.06;238934;180;153788;-56
2024/04/03 06:59:46;;;;;;;4.80;1.40;;;;;;;12.25;53.13;98140.13;238973;180;137090;-56
2024/04/03 07:04:49;;;;;;;5.10;1.30;;;;;;;12.30;52.94;98140.86;239040;180;139491;-57
2024/04/03 07:09:58;;;;;;;4.60;1.50;;;;;;;12.35;52.84;98146.36;238994;180;154571;-57
2024/04/03 07:15:01;;;;;;;3.50;1.20;;;;;;;12.43;52.50;98158.53;238721;180;137492;-56
2024/04/03 07:20:05;;;;;;;2.90;1.10;;;;;;;12.46;52.32;98165.92;239014;176;138776;-56
2024/04/03 07:25:08;;;;;;;5.10;1.10;;;;;;;12.62;52.37;98158.36;238861;180;153237;-56
2024/04/03 07:30:12;;;;;;;5.00;1.10;;;;;;;12.75;51.87;98144.94;238736;180;138011;-58
2024/04/03 07:35:15;;;;;;;5.80;1.40;;;;;;;12.86;50.91;98147.42;238789;180;137370;-56
2024/04/03 07:40:19;;;;;;;5.60;1.50;;;;;;;12.93;50.69;98143.55;238854;180;154560;-56
2024/04/03 07:45:23;;;;;;;4.90;1.30;;;;;;;13.07;50.97;98141.16;238878;180;137975;-58
2024/04/03 07:50:27;;;;;;;5.70;1.20;;;;;;;13.19;50.15;98144.17;239022;180;137486;-58
2024/04/03 07:55:30;;;;;;;4.90;1.40;;;;;;;13.25;49.47;98139.21;238926;180;154049;-57
2024/04/03 08:00:33;;;;;;;6.00;1.20;;;;;;;13.29;49.24;98144.59;239041;180;138301;-57
2024/04/03 08:05:36;;;;;;;5.20;0.90;;;;;;;13.36;49.22;98135.20;238967;180;138383;-58
2024/04/03 08:10:39;;;;;;;4.20;1.30;;;;;;;13.39;48.43;98142.28;239013;180;153428;-57
2024/04/03 08:15:42;;;;;;;4.80;1.20;;;;;;;13.47;48.87;98140.29;239105;180;137767;-57
2024/04/03 08:20:45;;;;;;;4.50;1.30;;;;;;;13.63;48.07;98151.70;238978;179;138028;-57
2024/04/03 08:25:48;;;;;;;6.20;1.40;;;;;;;13.73;47.71;98144.05;238986;180;154026;-58
2024/04/03 08:30:54;;;;;;;4.50;1.20;;;;;;;13.87;47.21;98145.84;238929;180;138867;-58
2024/04/03 08:36:03;;;;;;;7.30;1.30;;;;;;;14.00;46.58;98155.39;238977;180;137384;-58
2024/04/03 08:41:06;;;;;;;3.70;1.10;;;;;;;14.09;45.95;98139.27;239075;177;153669;-57
2024/04/03 08:46:09;;;;;;;7.20;1.20;;;;;;;14.17;45.04;98141.73;238948;180;137866;-57
2024/04/03 08:51:14;;;;;;;4.50;1.20;;;;;;;14.24;45.36;98147.50;239029;180;137505;-57
2024/04/03 08:56:18;;;;;;;7.10;1.50;;;;;;;14.37;45.17;98153.41;239044;180;154493;-57
2024/04/03 09:01:21;;;;;;;4.90;1.10;;;;;;;14.40;45.42;98146.91;238881;178;138821;-57
2024/04/03 09:06:24;;;;;;;5.60;1.10;;;;;;;14.52;45.22;98135.09;238900;176;137710;-58
2024/04/03 09:11:27;;;;;;;5.60;1.30;;;;;;;14.65;44.95;98132.49;239058;180;154728;-58
2024/04/03 09:16:33;;;;;;;5.00;1.10;;;;;;;14.74;44.55;98138.80;239028;180;138318;-55
2024/04/03 09:21:37;;;;;;;4.20;1.30;;;;;;;14.80;43.51;98141.63;239062;176;138368;-58
2024/04/03 09:26:48;;;;;;;38.20;21.70;;;;;;;14.89;43.73;98137.38;238933;180;154131;-56
2024/04/03 09:32:00;;;;;;;5.60;1.70;;;;;;;15.08;43.40;98139.52;238774;180;138547;-57
2024/04/03 09:37:03;;;;;;;4.30;1.10;;;;;;;15.08;43.06;98140.91;238909;180;137774;-57
2024/04/03 09:42:09;;;;;;;3.00;1.00;;;;;;;15.00;42.94;98148.30;238902;180;153517;-57
2024/04/03 09:47:14;;;;;;;;;;;;;;;14.94;43.08;98143.18;238887;180;137591;-56
2024/04/03 09:52:19;;;;;;;6.00;1.30;;;;;;;14.97;42.52;98145.36;239027;180;137427;-57
2024/04/03 09:57:22;;;;;;;74.50;47.60;;;;;;;15.06;42.46;98133.14;238826;180;153587;-56
2024/04/03 10:02:25;;;;;;;3.70;1.80;;;;;;;15.22;42.57;98128.85;238702;180;137517;-56
2024/04/03 10:07:30;;;;;;;4.10;0.90;;;;;;;15.41;42.70;98131.14;238758;180;138885;-58
2024/04/03 10:12:33;;;;;;;4.30;1.40;;;;;;;15.48;41.00;98138.91;238957;180;153068;-58
2024/04/03 10:17:38;;;;;;;5.60;1.30;;;;;;;15.49;41.13;98129.35;238729;180;137749;-57
2024/04/03 10:22:42;;;;;;;4.00;1.10;;;;;;;15.57;41.14;98133.36;238859;180;137306;-57
2024/04/03 10:27:45;;;;;;;3.40;1.10;;;;;;;15.89;40.56;98137.73;238771;180;154009;-55
2024/04/03 10:32:53;;;;;;;3.20;1.00;;;;;;;16.21;40.11;98122.98;238781;180;138096;-57
2024/04/03 10:37:59;;;;;;;5.30;1.00;;;;;;;16.43;38.67;98124.68;238971;180;139585;-56
2024/04/03 10:43:03;;;;;;;9.40;2.70;;;;;;;16.49;38.94;98135.41;238933;180;154271;-57
2024/04/03 10:48:10;;;;;;;3.70;1.00;;;;;;;16.55;37.02;98151.58;238923;180;136986;-57
2024/04/03 10:53:15;;;;;;;3.40;1.10;;;;;;;16.57;37.27;98140.48;238873;180;140399;-59
2024/04/03 10:58:20;;;;;;;26.60;19.00;;;;;;;16.43;37.85;98138.71;239011;180;152921;-56
2024/04/03 11:03:23;;;;;;;3.70;1.50;;;;;;;16.48;38.18;98145.65;238930;180;138031;-57
2024/04/03 11:08:27;;;;;;;3.30;1.20;;;;;;;16.61;38.62;98148.50;238952;180;137265;-58
2024/04/03 11:13:30;;;;;;;5.80;1.20;;;;;;;16.82;37.56;98154.47;238922;180;153097;-57
2024/04/03 11:18:33;;;;;;;5.70;1.20;;;;;;;16.87;38.49;98148.70;239030;180;137779;-58
2024/04/03 11:23:40;;;;;;;3.90;1.10;;;;;;;17.10;37.75;98150.34;238915;180;138699;-55
2024/04/03 11:28:44;;;;;;;5.30;0.90;;;;;;;17.42;37.56;98146.48;238957;180;153695;-56
2024/04/03 11:33:48;;;;;;;3.40;1.10;;;;;;;17.68;36.74;98156.80;238951;180;137211;-57
2024/04/03 11:38:51;;;;;;;3.00;1.00;;;;;;;17.88;37.00;98159.00;238958;173;138237;-58
2024/04/03 11:43:53;;;;;;;5.50;1.30;;;;;;;18.13;36.70;98155.77;238891;180;153718;-58
2024/04/03 11:48:59;;;;;;;5.00;1.30;;;;;;;18.42;37.11;98149.62;239012;177;137270;-58
2024/04/03 11:54:03;;;;;;;1.70;1.00;;;;;;;18.68;34.87;98155.44;238970;180;138344;-57
2024/04/03 11:59:07;;;;;;;4.60;1.00;;;;;;;18.64;34.18;98163.55;238845;180;154072;-58
2024/04/03 12:04:10;;;;;;;3.10;0.90;;;;;;;18.31;34.06;98165.92;238735;181;142259;-58
2024/04/03 12:09:12;;;;;;;4.60;1.20;;;;;;;18.30;35.18;98163.48;238916;180;137624;-58
2024/04/03 12:14:16;;;;;;;3.80;0.90;;;;;;;18.38;34.50;98166.02;238793;180;154372;-58
2024/04/03 12:24:42;;;;;;;2.10;0.80;;;;;;;18.11;35.06;98177.74;238791;180;137509;-58
2024/04/03 12:29:45;;;;;;;3.30;1.10;;;;;;;17.88;35.06;98181.70;238825;180;152873;-57
2024/04/03 12:34:53;;;;;;;;;;;;;;;18.06;35.21;98171.16;238969;180;138321;-57
2024/04/03 12:39:56;;;;;;;;;;;;;;;18.11;34.44;98188.38;239004;180;137255;-57
2024/04/03 12:45:02;;;;;;;4.00;1.20;;;;;;;18.44;34.28;98187.29;238841;180;154174;-57
2024/04/03 12:50:05;;;;;;;3.90;1.10;;;;;;;18.77;34.46;98192.69;238920;180;137437;-58
2024/04/03 12:55:09;;;;;;;4.40;1.20;;;;;;;19.13;33.76;98193.77;238926;180;137265;-57
2024/04/03 13:00:13;;;;;;;5.50;1.10;;;;;;;19.34;33.94;98184.59;238903;180;154128;-55
2024/04/03 13:05:16;;;;;;;4.50;1.30;;;;;;;19.56;33.59;98188.70;238810;178;138669;-56
2024/04/03 13:10:19;;;;;;;4.70;1.00;;;;;;;19.82;33.36;98189.86;238887;178;138044;-58
2024/04/03 13:15:22;;;;;;;3.10;1.00;;;;;;;19.61;32.98;98192.40;238948;180;152908;-57
2024/04/03 13:20:25;;;;;;;3.90;1.30;;;;;;;19.37;33.59;98197.47;238821;180;137852;-58
2024/04/03 13:25:30;;;;;;;4.50;1.40;;;;;;;18.88;33.59;98205.17;238930;180;139450;-57
2024/04/03 13:30:33;;;;;;;4.40;1.20;;;;;;;18.55;34.30;98206.73;238945;180;153517;-56
2024/04/03 13:35:36;;;;;;;5.00;1.30;;;;;;;18.35;34.85;98202.11;238977;180;136836;-56
2024/04/03 13:40:39;;;;;;;6.50;2.30;;;;;;;18.40;34.71;98208.71;238981;180;138155;-59
2024/04/03 13:45:44;;;;;;;5.40;2.00;;;;;;;18.53;34.57;98207.13;239019;180;154214;-58
2024/04/03 13:50:47;;;;;;;5.20;0.90;;;;;;;18.75;33.76;98212.91;239016;180;137644;-58
2024/04/03 13:56:00;;;;;;;2.60;1.00;;;;;;;19.29;33.44;98211.30;239020;180;138570;-58
2024/04/03 14:01:05;;;;;;;2.40;0.90;;;;;;;19.26;32.04;98215.02;238966;177;153176;-54
2024/04/03 14:06:08;;;;;;;2.00;1.00;;;;;;;18.84;32.66;98224.30;239013;180;138186;-58
2024/04/03 14:11:11;;;;;;;4.70;0.90;;;;;;;18.64;33.39;98228.04;238984;180;138350;-58
2024/04/03 14:16:18;;;;;;;2.30;0.80;;;;;;;18.58;33.14;98223.14;238940;180;154901;-57
2024/04/03 14:21:21;;;;;;;3.20;0.90;;;;;;;18.43;32.59;98231.45;239039;180;138073;-58
2024/04/03 14:26:24;;;;;;;2.80;1.00;;;;;;;18.23;33.19;98227.47;239038;173;137278;-57
2024/04/03 14:31:28;;;;;;;2.10;0.90;;;;;;;18.13;33.51;98221.91;239000;180;153202;-58
2024/04/03 14:36:32;;;;;;;4.10;1.00;;;;;;;18.01;33.81;98226.08;238987;180;137960;-55
2024/04/03 14:41:35;;;;;;;2.90;1.10;;;;;;;17.85;33.91;98221.80;239040;180;137482;-55
2024/04/03 14:46:38;;;;;;;5.70;1.30;;;;;;;17.67;34.59;98228.65;239106;180;153113;-57
2024/04/03 14:51:41;;;;;;;3.90;1.00;;;;;;;17.53;35.23;98227.23;239047;178;137851;-58
2024/04/03 14:56:44;;;;;;;4.80;1.20;;;;;;;17.44;35.86;98240.79;239029;180;139437;-58
2024/04/03 15:01:51;;;;;;;5.20;1.20;;;;;;;17.44;36.61;98234.80;239024;180;153204;-62
2024/04/03 15:06:54;;;;;;;4.30;1.20;;;;;;;17.43;36.95;98239.95;238938;180;138679;-58
2024/04/03 15:11:57;;;;;;;2.90;1.10;;;;;;;17.46;37.31;98239.46;239066;180;137796;-56
2024/04/03 15:17:27;;;;;;;10.00;4.60;;;;;;;17.44;37.58;98240.52;239047;180;154895;-57
2024/04/03 15:22:30;;;;;;;6.60;3.00;;;;;;;17.48;37.85;98245.59;238987;180;138885;-57
2024/04/03 15:27:34;;;;;;;4.80;1.40;;;;;;;17.42;38.18;98252.84;239019;180;138918;-57
2024/04/03 15:32:37;;;;;;;6.00;3.20;;;;;;;17.37;38.19;98260.98;239056;180;153091;-57
2024/04/03 15:37:40;;;;;;;4.80;1.50;;;;;;;17.27;38.59;98257.04;239080;180;137622;-56
2024/04/03 15:42:43;;;;;;;4.10;2.10;;;;;;;17.22;38.86;98263.27;239026;180;137584;-58
2024/04/03 15:47:46;;;;;;;5.70;1.60;;;;;;;17.14;38.81;98265.55;238977;180;152959;-56
2024/04/03 15:52:49;;;;;;;7.70;2.50;;;;;;;17.07;39.16;98266.43;238970;180;139191;-56
2024/04/03 15:57:52;;;;;;;4.00;1.50;;;;;;;17.06;39.53;98267.23;239010;180;137814;-57
2024/04/03 16:02:55;;;;;;;4.30;1.30;;;;;;;17.06;39.52;98268.14;238818;180;152888;-57
2024/04/03 16:07:58;;;;;;;5.00;1.30;;;;;;;17.07;39.73;98273.98;239012;180;137483;-57
2024/04/03 16:13:02;;;;;;;2.60;1.10;;;;;;;17.04;39.81;98278.70;239009;180;138520;-57
2024/04/03 16:18:05;;;;;;;4.60;1.30;;;;;;;16.99;39.88;98276.40;239012;180;153557;-55
2024/04/03 16:23:08;;;;;;;4.80;1.30;;;;;;;16.94;39.76;98281.73;239018;180;138940;-55
2024/04/03 16:28:11;;;;;;;32.60;25.20;;;;;;;16.89;39.95;98285.06;239030;180;137081;-55
2024/04/03 16:33:14;;;;;;;5.30;2.00;;;;;;;16.92;40.18;98288.34;238967;179;154097;-56
2024/04/03 16:38:18;;;;;;;7.50;1.30;;;;;;;16.93;40.17;98291.81;238990;180;137600;-57
2024/04/03 16:43:21;;;;;;;3.80;1.50;;;;;;;16.91;40.36;98293.45;239036;177;138266;-57
2024/04/03 16:48:28;;;;;;;3.60;1.30;;;;;;;16.88;40.42;98295.79;239055;180;154071;-58
2024/04/03 16:53:32;;;;;;;6.30;1.10;;;;;;;16.85;40.57;98299.83;239007;180;138149;-58
2024/04/03 16:58:35;;;;;;;3.60;1.10;;;;;;;16.84;40.74;98303.50;239038;180;138762;-57
2024/04/03 17:03:39;;;;;;;3.30;1.50;;;;;;;16.80;40.78;98304.25;238912;180;153425;-58
2024/04/03 17:08:45;;;;;;;4.90;1.20;;;;;;;16.75;41.02;98309.43;238974;180;138584;-57
2024/04/03 17:13:49;;;;;;;4.30;1.30;;;;;;;16.73;41.15;98312.47;239031;180;137480;-64
2024/04/03 17:18:52;;;;;;;4.70;1.60;;;;;;;16.72;41.26;98315.08;239010;180;154078;-57
2024/04/03 17:23:55;;;;;;;4.30;1.50;;;;;;;16.69;41.37;98320.33;239040;177;137019;-58
2024/04/03 17:28:59;;;;;;;6.00;1.50;;;;;;;16.71;41.31;98326.23;239007;180;137810;-58
2024/04/03 17:34:02;;;;;;;5.40;1.70;;;;;;;16.72;41.49;98327.02;239026;180;154490;-56
2024/04/03 17:39:05;;;;;;;309.10;245.30;;;;;;;16.72;41.45;98338.36;239000;180;141864;-57
2024/04/03 17:44:08;;;;;;;218.90;160.80;;;;;;;16.74;41.56;98342.79;238913;180;137933;-56
2024/04/03 17:49:11;;;;;;;10.60;6.10;;;;;;;16.80;42.47;98348.83;239025;180;153677;-57
2024/04/03 17:54:14;;;;;;;7.70;2.40;;;;;;;16.82;41.49;98357.23;238992;180;137808;-57
2024/04/03 17:59:17;;;;;;;4.40;1.80;;;;;;;16.77;41.31;98362.00;239045;179;137698;-57
2024/04/03 18:04:20;;;;;;;3.80;1.70;;;;;;;16.76;41.49;98373.64;238992;180;153742;-58
2024/04/03 18:09:23;;;;;;;5.80;1.90;;;;;;;16.72;41.54;98385.09;238978;178;137860;-58
2024/04/03 18:14:26;;;;;;;198.20;177.20;;;;;;;16.70;41.64;98394.54;238933;180;137145;-57
2024/04/03 18:19:29;;;;;;;6.30;3.90;;;;;;;16.71;41.95;98401.70;238984;177;153208;-56
2024/04/03 18:24:32;;;;;;;6.90;2.70;;;;;;;16.70;42.04;98409.67;238976;177;137120;-58
2024/04/03 18:29:35;;;;;;;5.80;2.10;;;;;;;16.68;42.17;98418.94;238995;176;137631;-58
2024/04/03 18:34:48;;;;;;;7.30;2.50;;;;;;;16.66;42.37;98428.66;238937;180;153053;-56
2024/04/03 18:39:51;;;;;;;7.60;2.90;;;;;;;16.62;42.65;98435.51;238929;180;137581;-57
2024/04/03 18:44:54;;;;;;;5.20;2.20;;;;;;;16.53;43.13;98443.66;239010;180;137227;-56
2024/04/03 18:49:57;;;;;;;4.90;2.30;;;;;;;16.39;43.44;98454.56;238963;169;152943;-54
2024/04/03 18:55:02;;;;;;;9.30;4.00;;;;;;;16.35;44.46;98460.99;238965;180;138155;-60
2024/04/03 19:00:10;;;;;;;7.80;3.90;;;;;;;16.43;44.99;98464.36;239026;180;137519;-55
2024/04/03 19:05:13;;;;;;;6.10;2.40;;;;;;;16.35;45.13;98459.35;239032;180;153209;-55
2024/04/03 19:10:16;;;;;;;5.50;2.50;;;;;;;16.22;45.73;98464.03;239043;180;137536;-55
2024/04/03 19:15:19;;;;;;;4.70;2.50;;;;;;;16.14;46.26;98469.66;239080;180;139646;-57
2024/04/03 19:20:25;;;;;;;71.50;57.70;;;;;;;16.09;46.95;98473.11;239072;180;153301;-57
2024/04/03 19:25:28;;;;;;;12.30;6.60;;;;;;;16.05;47.32;98472.45;238949;180;138218;-55
2024/04/03 19:30:32;;;;;;;6.10;2.40;;;;;;;16.02;47.56;98475.95;239060;180;139300;-58
2024/04/03 19:35:36;;;;;;;6.50;2.30;;;;;;;15.98;47.53;98477.41;239038;173;153518;-55
2024/04/03 19:40:40;;;;;;;163.90;135.40;;;;;;;15.93;48.13;98485.52;239013;180;138040;-57
2024/04/03 19:45:51;;;;;;;21.40;12.10;;;;;;;15.97;48.30;98483.88;239132;180;138586;-56
2024/04/03 19:50:54;;;;;;;7.20;3.90;;;;;;;15.93;48.41;98493.77;238920;180;154300;-57
2024/04/03 19:55:57;;;;;;;4.80;2.60;;;;;;;15.86;48.66;98500.16;239069;180;138279;-57
2024/04/03 20:01:04;;;;;;;6.10;3.10;;;;;;;15.77;48.87;98506.34;238949;180;137654;-58
2024/04/03 20:06:07;;;;;;;5.20;2.60;;;;;;;15.72;49.38;98501.23;238997;180;153134;-57
2024/04/03 20:11:11;;;;;;;6.60;2.80;;;;;;;15.60;50.13;98505.73;239040;180;138252;-57
2024/04/03 20:16:14;;;;;;;7.00;2.90;;;;;;;15.54;50.33;98517.83;238994;180;140586;-56
2024/04/03 20:21:17;;;;;;;6.70;2.90;;;;;;;15.52;50.82;98527.92;238993;180;154365;-55
2024/04/03 20:26:20;;;;;;;7.00;2.40;;;;;;;15.49;51.13;98532.14;238871;180;138068;-55
2024/04/03 20:31:23;;;;;;;8.00;2.80;;;;;;;15.40;51.69;98538.08;239077;180;138156;-55
2024/04/03 20:36:26;;;;;;;8.30;3.20;;;;;;;15.31;52.45;98548.17;239088;177;153754;-53
2024/04/03 20:41:29;;;;;;;7.10;3.10;;;;;;;15.15;53.67;98552.72;239006;180;138154;-56
2024/04/03 20:46:33;;;;;;;7.90;3.90;;;;;;;14.95;54.72;98553.21;239046;180;139456;-56
2024/04/03 20:51:35;;;;;;;6.90;3.20;;;;;;;14.86;55.58;98552.89;239085;180;153573;-56
2024/04/03 20:56:38;;;;;;;6.40;3.30;;;;;;;14.78;56.34;98554.91;239055;177;148784;-56
2024/04/03 21:01:42;;;;;;;7.00;3.00;;;;;;;14.68;57.14;98556.30;239144;180;137529;-56
2024/04/03 21:06:46;;;;;;;6.60;3.80;;;;;;;14.60;57.58;98561.18;239050;180;154434;-56
2024/04/03 21:11:49;;;;;;;8.10;3.10;;;;;;;14.54;58.22;98562.88;238776;180;138614;-56
2024/04/03 21:16:52;;;;;;;6.50;3.40;;;;;;;14.49;58.37;98562.85;239067;180;137576;-56
2024/04/03 21:21:55;;;;;;;7.60;3.10;;;;;;;14.46;58.66;98565.27;238960;180;153898;-56
2024/04/03 21:26:58;;;;;;;6.30;3.30;;;;;;;14.45;58.79;98563.03;239136;180;137303;-57
2024/04/03 21:32:01;;;;;;;7.10;2.60;;;;;;;14.41;59.17;98565.86;239038;180;138463;-55
2024/04/03 21:37:04;;;;;;;6.10;2.70;;;;;;;14.39;59.19;98571.00;238981;180;154177;-57
2024/04/03 21:42:07;;;;;;;5.80;2.40;;;;;;;14.36;59.29;98573.63;239071;180;137415;-57
2024/04/03 21:47:11;;;;;;;6.90;2.50;;;;;;;14.36;59.36;98576.30;239065;180;140289;-57
2024/04/03 21:52:14;;;;;;;4.60;2.30;;;;;;;14.36;59.50;98580.59;238965;180;153098;-57
2024/04/03 21:57:17;;;;;;;6.00;1.90;;;;;;;14.30;59.70;98584.85;239074;179;137933;-56
2024/04/03 22:02:22;;;;;;;5.60;2.30;;;;;;;14.24;60.25;98581.81;239047;180;139281;-56
2024/04/03 22:07:25;;;;;;;3.90;1.80;;;;;;;14.19;60.49;98583.26;239015;180;152848;-56
2024/04/03 22:12:28;;;;;;;4.80;2.30;;;;;;;14.13;60.68;98584.30;239072;180;138289;-55
2024/04/03 22:17:31;;;;;;;4.40;2.10;;;;;;;14.09;61.13;98579.27;239045;180;138490;-56
2024/04/03 22:22:34;;;;;;;5.90;2.30;;;;;;;14.09;61.21;98581.83;239072;180;153010;-56
2024/04/03 22:27:37;;;;;;;5.50;2.10;;;;;;;14.05;61.48;98584.27;239019;179;137894;-57
2024/04/03 22:32:40;;;;;;;3.40;1.90;;;;;;;14.03;61.76;98586.95;239112;180;137026;-55
2024/04/03 22:37:43;;;;;;;6.20;2.00;;;;;;;13.96;62.07;98583.59;239069;180;154336;-57
2024/04/03 22:42:46;;;;;;;5.80;2.10;;;;;;;13.87;62.41;98589.13;239013;173;137976;-54
2024/04/03 22:47:49;;;;;;;7.00;2.40;;;;;;;13.85;62.68;98588.09;239107;180;137347;-54
2024/04/03 22:52:52;;;;;;;4.20;1.90;;;;;;;13.82;62.98;98593.14;238951;180;153816;-56
2024/04/03 22:57:55;;;;;;;4.70;2.10;;;;;;;13.78;63.24;98588.14;239086;180;137720;-57
2024/04/03 23:02:58;;;;;;;4.10;1.80;;;;;;;13.75;63.50;98585.85;239030;180;137981;-56
2024/04/03 23:08:02;;;;;;;4.00;2.00;;;;;;;13.69;63.86;98581.16;239040;180;155871;-57
2024/04/03 23:13:05;;;;;;;5.90;2.00;;;;;;;13.69;63.97;98584.02;239032;180;137908;-55
2024/04/03 23:18:08;;;;;;;6.30;2.10;;;;;;;13.66;64.10;98582.17;239052;180;137129;-55
2024/04/03 23:23:11;;;;;;;3.50;2.00;;;;;;;13.64;64.30;98581.09;239124;177;152949;-56
2024/04/03 23:28:14;;;;;;;8.10;2.20;;;;;;;13.65;64.36;98581.17;239055;180;137096;-57
2024/04/03 23:33:17;;;;;;;4.80;1.80;;;;;;;13.65;64.53;98579.02;239058;180;138255;-57
2024/04/03 23:38:20;;;;;;;7.20;2.50;;;;;;;13.61;64.75;98576.83;239034;177;152873;-55